sensor_id;sensor_type;location;lat;lon;timestamp;P1;durP1;ratioP1;P2;durP2;ratioP2
45007;SDS011;30743;52.008;5.644;2023-06-01T00:01:57;8.93;;;5.53;;
45007;SDS011;30743;52.008;5.644;2023-06-01T00:04:23;9.43;;;5.80;;
45007;SDS011;30743;52.008;5.644;2023-06-01T00:06:48;7.72;;;5.45;;
45007;SDS011;30743;52.008;5.644;2023-06-01T00:09:14;8.60;;;4.88;;
45007;SDS011;30743;52.008;5.644;2023-06-01T00:11:40;11.07;;;5.68;;
45007;SDS011;30743;52.008;5.644;2023-06-01T00:14:05;10.30;;;5.57;;
45007;SDS011;30743;52.008;5.644;2023-06-01T00:16:31;7.63;;;5.20;;
45007;SDS011;30743;52.008;5.644;2023-06-01T00:18:57;9.90;;;5.35;;
45007;SDS011;30743;52.008;5.644;2023-06-01T00:21:25;9.18;;;5.32;;
45007;SDS011;30743;52.008;5.644;2023-06-01T00:23:51;10.57;;;5.53;;
45007;SDS011;30743;52.008;5.644;2023-06-01T00:26:17;9.02;;;4.60;;
45007;SDS011;30743;52.008;5.644;2023-06-01T00:28:42;9.85;;;5.05;;
45007;SDS011;30743;52.008;5.644;2023-06-01T00:31:08;11.07;;;5.65;;
45007;SDS011;30743;52.008;5.644;2023-06-01T00:33:33;7.28;;;4.47;;
45007;SDS011;30743;52.008;5.644;2023-06-01T00:35:59;9.80;;;5.57;;
45007;SDS011;30743;52.008;5.644;2023-06-01T00:38:25;7.40;;;5.20;;
45007;SDS011;30743;52.008;5.644;2023-06-01T00:40:50;8.57;;;4.57;;
45007;SDS011;30743;52.008;5.644;2023-06-01T00:43:16;9.50;;;5.00;;
45007;SDS011;30743;52.008;5.644;2023-06-01T00:45:43;10.70;;;5.60;;
45007;SDS011;30743;52.008;5.644;2023-06-01T00:48:09;9.98;;;5.40;;
45007;SDS011;30743;52.008;5.644;2023-06-01T00:50:35;9.73;;;5.07;;
45007;SDS011;30743;52.008;5.644;2023-06-01T00:53:02;8.10;;;4.75;;
45007;SDS011;30743;52.008;5.644;2023-06-01T00:55:30;6.50;;;4.18;;
45007;SDS011;30743;52.008;5.644;2023-06-01T00:57:55;8.57;;;4.63;;
45007;SDS011;30743;52.008;5.644;2023-06-01T01:00:22;8.73;;;5.18;;
45007;SDS011;30743;52.008;5.644;2023-06-01T01:02:49;8.00;;;4.82;;
45007;SDS011;30743;52.008;5.644;2023-06-01T01:05:16;11.38;;;5.25;;
45007;SDS011;30743;52.008;5.644;2023-06-01T01:07:55;9.02;;;5.05;;
45007;SDS011;30743;52.008;5.644;2023-06-01T01:18:38;10.55;;;4.72;;
45007;SDS011;30743;52.008;5.644;2023-06-01T01:21:07;7.25;;;4.53;;
45007;SDS011;30743;52.008;5.644;2023-06-01T01:26:32;9.18;;;4.78;;
45007;SDS011;30743;52.008;5.644;2023-06-01T01:29:06;8.60;;;4.75;;
45007;SDS011;30743;52.008;5.644;2023-06-01T01:31:34;9.32;;;4.32;;
45007;SDS011;30743;52.008;5.644;2023-06-01T01:34:02;7.85;;;4.68;;
45007;SDS011;30743;52.008;5.644;2023-06-01T01:36:28;8.27;;;4.90;;
45007;SDS011;30743;52.008;5.644;2023-06-01T01:38:54;6.18;;;4.22;;
45007;SDS011;30743;52.008;5.644;2023-06-01T01:41:20;8.30;;;4.20;;
45007;SDS011;30743;52.008;5.644;2023-06-01T01:43:49;8.35;;;4.45;;
45007;SDS011;30743;52.008;5.644;2023-06-01T01:46:28;7.50;;;4.05;;
45007;SDS011;30743;52.008;5.644;2023-06-01T01:48:58;10.13;;;4.70;;
45007;SDS011;30743;52.008;5.644;2023-06-01T01:52:18;8.30;;;4.10;;
45007;SDS011;30743;52.008;5.644;2023-06-01T01:54:42;7.32;;;4.18;;
45007;SDS011;30743;52.008;5.644;2023-06-01T01:57:09;9.18;;;4.55;;
45007;SDS011;30743;52.008;5.644;2023-06-01T01:59:39;6.95;;;4.60;;
45007;SDS011;30743;52.008;5.644;2023-06-01T02:02:06;9.38;;;5.43;;
45007;SDS011;30743;52.008;5.644;2023-06-01T02:04:32;10.27;;;5.28;;
45007;SDS011;30743;52.008;5.644;2023-06-01T02:07:03;7.85;;;4.55;;
45007;SDS011;30743;52.008;5.644;2023-06-01T02:09:28;8.13;;;4.93;;
45007;SDS011;30743;52.008;5.644;2023-06-01T02:11:54;8.80;;;4.75;;
45007;SDS011;30743;52.008;5.644;2023-06-01T02:14:19;8.77;;;4.93;;
45007;SDS011;30743;52.008;5.644;2023-06-01T02:16:45;7.43;;;4.45;;
45007;SDS011;30743;52.008;5.644;2023-06-01T02:19:11;7.75;;;4.65;;
45007;SDS011;30743;52.008;5.644;2023-06-01T02:21:36;8.35;;;4.50;;
45007;SDS011;30743;52.008;5.644;2023-06-01T02:24:02;8.88;;;4.93;;
45007;SDS011;30743;52.008;5.644;2023-06-01T02:26:31;6.93;;;4.25;;
45007;SDS011;30743;52.008;5.644;2023-06-01T02:28:57;9.65;;;4.25;;
45007;SDS011;30743;52.008;5.644;2023-06-01T02:31:23;11.48;;;4.53;;
45007;SDS011;30743;52.008;5.644;2023-06-01T02:33:48;8.98;;;4.70;;
45007;SDS011;30743;52.008;5.644;2023-06-01T02:36:15;6.85;;;4.43;;
45007;SDS011;30743;52.008;5.644;2023-06-01T02:38:41;9.98;;;4.78;;
45007;SDS011;30743;52.008;5.644;2023-06-01T02:41:07;8.40;;;4.50;;
45007;SDS011;30743;52.008;5.644;2023-06-01T02:43:33;8.10;;;4.50;;
45007;SDS011;30743;52.008;5.644;2023-06-01T02:46:00;9.18;;;4.88;;
45007;SDS011;30743;52.008;5.644;2023-06-01T02:48:26;7.95;;;4.97;;
45007;SDS011;30743;52.008;5.644;2023-06-01T02:50:53;9.82;;;4.78;;
45007;SDS011;30743;52.008;5.644;2023-06-01T02:53:18;10.88;;;4.72;;
45007;SDS011;30743;52.008;5.644;2023-06-01T02:55:43;8.80;;;5.22;;
45007;SDS011;30743;52.008;5.644;2023-06-01T02:58:09;8.13;;;4.43;;
45007;SDS011;30743;52.008;5.644;2023-06-01T03:00:41;11.35;;;5.30;;
45007;SDS011;30743;52.008;5.644;2023-06-01T03:03:07;8.38;;;4.72;;
45007;SDS011;30743;52.008;5.644;2023-06-01T03:05:33;9.27;;;5.38;;
45007;SDS011;30743;52.008;5.644;2023-06-01T03:08:00;9.60;;;4.97;;
45007;SDS011;30743;52.008;5.644;2023-06-01T03:10:26;8.48;;;4.60;;
45007;SDS011;30743;52.008;5.644;2023-06-01T03:12:52;7.40;;;4.65;;
45007;SDS011;30743;52.008;5.644;2023-06-01T03:15:17;8.65;;;4.78;;
45007;SDS011;30743;52.008;5.644;2023-06-01T03:17:43;11.13;;;5.05;;
45007;SDS011;30743;52.008;5.644;2023-06-01T03:20:09;11.75;;;5.38;;
45007;SDS011;30743;52.008;5.644;2023-06-01T03:22:43;8.65;;;4.80;;
45007;SDS011;30743;52.008;5.644;2023-06-01T03:25:10;9.68;;;4.43;;
45007;SDS011;30743;52.008;5.644;2023-06-01T03:27:37;11.57;;;4.70;;
45007;SDS011;30743;52.008;5.644;2023-06-01T03:30:03;10.18;;;4.90;;
45007;SDS011;30743;52.008;5.644;2023-06-01T03:32:34;7.25;;;4.70;;
45007;SDS011;30743;52.008;5.644;2023-06-01T03:35:01;10.10;;;4.72;;
45007;SDS011;30743;52.008;5.644;2023-06-01T03:37:26;8.73;;;4.47;;
45007;SDS011;30743;52.008;5.644;2023-06-01T03:39:52;7.57;;;4.75;;
45007;SDS011;30743;52.008;5.644;2023-06-01T03:42:17;9.10;;;4.40;;
45007;SDS011;30743;52.008;5.644;2023-06-01T03:44:44;8.73;;;4.60;;
45007;SDS011;30743;52.008;5.644;2023-06-01T03:47:10;8.65;;;4.80;;
45007;SDS011;30743;52.008;5.644;2023-06-01T03:49:35;8.25;;;4.85;;
45007;SDS011;30743;52.008;5.644;2023-06-01T03:52:01;9.27;;;4.80;;
45007;SDS011;30743;52.008;5.644;2023-06-01T03:54:26;9.00;;;5.20;;
45007;SDS011;30743;52.008;5.644;2023-06-01T03:56:52;9.10;;;5.22;;
45007;SDS011;30743;52.008;5.644;2023-06-01T03:59:17;9.93;;;4.50;;
45007;SDS011;30743;52.008;5.644;2023-06-01T04:01:43;9.30;;;4.95;;
45007;SDS011;30743;52.008;5.644;2023-06-01T04:04:08;8.60;;;5.13;;
45007;SDS011;30743;52.008;5.644;2023-06-01T04:06:34;9.85;;;4.65;;
45007;SDS011;30743;52.008;5.644;2023-06-01T04:09:01;9.50;;;4.75;;
45007;SDS011;30743;52.008;5.644;2023-06-01T04:11:31;12.40;;;4.97;;
45007;SDS011;30743;52.008;5.644;2023-06-01T04:13:58;8.68;;;4.65;;
45007;SDS011;30743;52.008;5.644;2023-06-01T04:16:24;8.57;;;4.47;;
45007;SDS011;30743;52.008;5.644;2023-06-01T04:18:50;11.13;;;5.30;;
45007;SDS011;30743;52.008;5.644;2023-06-01T04:21:16;8.05;;;4.65;;
45007;SDS011;30743;52.008;5.644;2023-06-01T04:23:42;8.45;;;4.95;;
45007;SDS011;30743;52.008;5.644;2023-06-01T04:26:08;11.05;;;5.20;;
45007;SDS011;30743;52.008;5.644;2023-06-01T04:28:33;9.68;;;4.75;;
45007;SDS011;30743;52.008;5.644;2023-06-01T04:31:00;7.75;;;4.63;;
45007;SDS011;30743;52.008;5.644;2023-06-01T04:33:27;8.27;;;4.65;;
45007;SDS011;30743;52.008;5.644;2023-06-01T04:35:53;9.27;;;4.88;;
45007;SDS011;30743;52.008;5.644;2023-06-01T04:38:21;7.45;;;4.47;;
45007;SDS011;30743;52.008;5.644;2023-06-01T04:40:49;9.43;;;4.63;;
45007;SDS011;30743;52.008;5.644;2023-06-01T04:43:18;9.03;;;4.97;;
45007;SDS011;30743;52.008;5.644;2023-06-01T04:45:44;8.00;;;4.28;;
45007;SDS011;30743;52.008;5.644;2023-06-01T04:48:11;6.80;;;4.57;;
45007;SDS011;30743;52.008;5.644;2023-06-01T04:50:36;9.35;;;4.63;;
45007;SDS011;30743;52.008;5.644;2023-06-01T04:53:02;9.68;;;4.57;;
45007;SDS011;30743;52.008;5.644;2023-06-01T04:55:28;8.95;;;4.82;;
45007;SDS011;30743;52.008;5.644;2023-06-01T04:57:55;15.25;;;5.72;;
45007;SDS011;30743;52.008;5.644;2023-06-01T05:00:21;10.68;;;4.88;;
45007;SDS011;30743;52.008;5.644;2023-06-01T05:02:47;9.50;;;4.68;;
45007;SDS011;30743;52.008;5.644;2023-06-01T05:05:14;11.43;;;5.35;;
45007;SDS011;30743;52.008;5.644;2023-06-01T05:07:40;9.23;;;4.85;;
45007;SDS011;30743;52.008;5.644;2023-06-01T05:10:10;7.20;;;4.17;;
45007;SDS011;30743;52.008;5.644;2023-06-01T05:12:36;9.85;;;5.60;;
45007;SDS011;30743;52.008;5.644;2023-06-01T05:15:02;10.15;;;4.40;;
45007;SDS011;30743;52.008;5.644;2023-06-01T05:17:30;10.15;;;5.10;;
45007;SDS011;30743;52.008;5.644;2023-06-01T05:19:56;7.28;;;4.60;;
45007;SDS011;30743;52.008;5.644;2023-06-01T05:22:25;7.28;;;4.68;;
45007;SDS011;30743;52.008;5.644;2023-06-01T05:24:51;7.13;;;4.65;;
45007;SDS011;30743;52.008;5.644;2023-06-01T05:27:16;8.60;;;4.82;;
45007;SDS011;30743;52.008;5.644;2023-06-01T05:29:42;9.57;;;4.57;;
45007;SDS011;30743;52.008;5.644;2023-06-01T05:32:08;10.48;;;4.63;;
45007;SDS011;30743;52.008;5.644;2023-06-01T05:34:34;8.35;;;4.60;;
45007;SDS011;30743;52.008;5.644;2023-06-01T05:37:00;9.05;;;4.82;;
45007;SDS011;30743;52.008;5.644;2023-06-01T05:39:26;9.32;;;4.68;;
45007;SDS011;30743;52.008;5.644;2023-06-01T05:41:53;9.40;;;4.90;;
45007;SDS011;30743;52.008;5.644;2023-06-01T05:44:22;11.13;;;4.75;;
45007;SDS011;30743;52.008;5.644;2023-06-01T05:46:48;7.90;;;4.72;;
45007;SDS011;30743;52.008;5.644;2023-06-01T05:49:14;12.48;;;4.85;;
45007;SDS011;30743;52.008;5.644;2023-06-01T05:51:40;8.88;;;5.05;;
45007;SDS011;30743;52.008;5.644;2023-06-01T05:54:05;8.68;;;5.03;;
45007;SDS011;30743;52.008;5.644;2023-06-01T05:56:31;7.70;;;4.43;;
45007;SDS011;30743;52.008;5.644;2023-06-01T05:58:58;8.75;;;4.60;;
45007;SDS011;30743;52.008;5.644;2023-06-01T06:01:24;8.75;;;4.28;;
45007;SDS011;30743;52.008;5.644;2023-06-01T06:03:49;8.68;;;4.47;;
45007;SDS011;30743;52.008;5.644;2023-06-01T06:06:16;9.60;;;4.50;;
45007;SDS011;30743;52.008;5.644;2023-06-01T06:08:42;5.93;;;3.72;;
45007;SDS011;30743;52.008;5.644;2023-06-01T06:11:07;6.40;;;4.13;;
45007;SDS011;30743;52.008;5.644;2023-06-01T06:13:33;8.90;;;4.15;;
45007;SDS011;30743;52.008;5.644;2023-06-01T06:15:59;8.02;;;4.10;;
45007;SDS011;30743;52.008;5.644;2023-06-01T06:18:24;10.73;;;4.32;;
45007;SDS011;30743;52.008;5.644;2023-06-01T06:20:50;11.95;;;4.97;;
45007;SDS011;30743;52.008;5.644;2023-06-01T06:23:15;6.97;;;4.22;;
45007;SDS011;30743;52.008;5.644;2023-06-01T06:25:41;9.63;;;4.60;;
45007;SDS011;30743;52.008;5.644;2023-06-01T06:28:06;10.10;;;4.50;;
45007;SDS011;30743;52.008;5.644;2023-06-01T06:30:33;8.70;;;4.68;;
45007;SDS011;30743;52.008;5.644;2023-06-01T06:32:58;9.52;;;5.30;;
45007;SDS011;30743;52.008;5.644;2023-06-01T06:35:24;9.70;;;4.50;;
45007;SDS011;30743;52.008;5.644;2023-06-01T06:37:49;9.93;;;4.55;;
45007;SDS011;30743;52.008;5.644;2023-06-01T06:40:15;9.38;;;4.60;;
45007;SDS011;30743;52.008;5.644;2023-06-01T06:42:43;11.45;;;4.10;;
45007;SDS011;30743;52.008;5.644;2023-06-01T06:45:08;9.20;;;5.20;;
45007;SDS011;30743;52.008;5.644;2023-06-01T06:47:34;18.45;;;4.45;;
45007;SDS011;30743;52.008;5.644;2023-06-01T06:50:02;12.25;;;4.65;;
45007;SDS011;30743;52.008;5.644;2023-06-01T06:52:28;7.95;;;3.70;;
45007;SDS011;30743;52.008;5.644;2023-06-01T06:54:53;9.77;;;3.80;;
45007;SDS011;30743;52.008;5.644;2023-06-01T06:57:19;8.15;;;4.10;;
45007;SDS011;30743;52.008;5.644;2023-06-01T06:59:44;6.28;;;4.40;;
45007;SDS011;30743;52.008;5.644;2023-06-01T07:02:10;7.03;;;4.63;;
45007;SDS011;30743;52.008;5.644;2023-06-01T07:04:35;8.65;;;4.20;;
45007;SDS011;30743;52.008;5.644;2023-06-01T07:07:01;8.63;;;4.20;;
45007;SDS011;30743;52.008;5.644;2023-06-01T07:09:29;7.63;;;4.15;;
45007;SDS011;30743;52.008;5.644;2023-06-01T07:11:54;8.95;;;4.63;;
45007;SDS011;30743;52.008;5.644;2023-06-01T07:14:20;6.75;;;3.97;;
45007;SDS011;30743;52.008;5.644;2023-06-01T07:16:46;8.18;;;4.05;;
45007;SDS011;30743;52.008;5.644;2023-06-01T07:19:11;8.77;;;3.53;;
45007;SDS011;30743;52.008;5.644;2023-06-01T07:21:37;9.20;;;4.53;;
45007;SDS011;30743;52.008;5.644;2023-06-01T07:24:04;6.78;;;3.45;;
45007;SDS011;30743;52.008;5.644;2023-06-01T07:26:30;9.07;;;4.07;;
45007;SDS011;30743;52.008;5.644;2023-06-01T07:28:55;5.82;;;3.90;;
45007;SDS011;30743;52.008;5.644;2023-06-01T07:31:21;8.55;;;4.07;;
45007;SDS011;30743;52.008;5.644;2023-06-01T07:33:48;9.13;;;4.35;;
45007;SDS011;30743;52.008;5.644;2023-06-01T07:36:13;6.90;;;3.92;;
45007;SDS011;30743;52.008;5.644;2023-06-01T07:38:40;9.63;;;4.25;;
45007;SDS011;30743;52.008;5.644;2023-06-01T07:41:06;9.50;;;4.68;;
45007;SDS011;30743;52.008;5.644;2023-06-01T07:43:35;7.32;;;4.18;;
45007;SDS011;30743;52.008;5.644;2023-06-01T07:46:01;9.40;;;4.60;;
45007;SDS011;30743;52.008;5.644;2023-06-01T07:48:27;9.00;;;5.10;;
45007;SDS011;30743;52.008;5.644;2023-06-01T07:50:52;8.88;;;4.70;;
45007;SDS011;30743;52.008;5.644;2023-06-01T07:53:18;8.48;;;4.32;;
45007;SDS011;30743;52.008;5.644;2023-06-01T07:55:44;9.88;;;4.20;;
45007;SDS011;30743;52.008;5.644;2023-06-01T07:58:10;7.15;;;4.60;;
45007;SDS011;30743;52.008;5.644;2023-06-01T08:00:35;9.43;;;4.30;;
45007;SDS011;30743;52.008;5.644;2023-06-01T08:03:01;9.45;;;4.40;;
45007;SDS011;30743;52.008;5.644;2023-06-01T08:05:30;7.40;;;4.68;;
45007;SDS011;30743;52.008;5.644;2023-06-01T08:07:57;7.90;;;4.03;;
45007;SDS011;30743;52.008;5.644;2023-06-01T08:10:22;8.68;;;4.22;;
45007;SDS011;30743;52.008;5.644;2023-06-01T08:12:48;6.68;;;3.95;;
45007;SDS011;30743;52.008;5.644;2023-06-01T08:15:14;9.38;;;4.10;;
45007;SDS011;30743;52.008;5.644;2023-06-01T08:17:40;11.48;;;4.28;;
45007;SDS011;30743;52.008;5.644;2023-06-01T08:20:06;8.07;;;4.28;;
45007;SDS011;30743;52.008;5.644;2023-06-01T08:22:35;6.97;;;4.03;;
45007;SDS011;30743;52.008;5.644;2023-06-01T08:25:01;7.72;;;3.92;;
45007;SDS011;30743;52.008;5.644;2023-06-01T08:27:27;8.45;;;3.95;;
45007;SDS011;30743;52.008;5.644;2023-06-01T08:29:53;6.38;;;4.10;;
45007;SDS011;30743;52.008;5.644;2023-06-01T08:32:19;7.00;;;3.50;;
45007;SDS011;30743;52.008;5.644;2023-06-01T08:34:45;7.38;;;3.80;;
45007;SDS011;30743;52.008;5.644;2023-06-01T08:37:12;9.23;;;4.35;;
45007;SDS011;30743;52.008;5.644;2023-06-01T08:39:38;7.32;;;3.78;;
45007;SDS011;30743;52.008;5.644;2023-06-01T08:42:14;7.90;;;3.80;;
45007;SDS011;30743;52.008;5.644;2023-06-01T08:44:46;6.75;;;3.88;;
45007;SDS011;30743;52.008;5.644;2023-06-01T08:47:12;10.02;;;4.32;;
45007;SDS011;30743;52.008;5.644;2023-06-01T08:49:38;12.68;;;4.43;;
45007;SDS011;30743;52.008;5.644;2023-06-01T08:52:13;11.57;;;4.03;;
45007;SDS011;30743;52.008;5.644;2023-06-01T08:54:43;8.20;;;3.83;;
45007;SDS011;30743;52.008;5.644;2023-06-01T08:57:08;6.85;;;3.08;;
45007;SDS011;30743;52.008;5.644;2023-06-01T08:59:35;5.80;;;3.70;;
45007;SDS011;30743;52.008;5.644;2023-06-01T09:02:01;8.30;;;3.78;;
45007;SDS011;30743;52.008;5.644;2023-06-01T09:04:27;5.10;;;3.60;;
45007;SDS011;30743;52.008;5.644;2023-06-01T09:06:55;5.72;;;3.10;;
45007;SDS011;30743;52.008;5.644;2023-06-01T09:09:21;5.45;;;3.40;;
45007;SDS011;30743;52.008;5.644;2023-06-01T09:11:47;5.10;;;2.95;;
45007;SDS011;30743;52.008;5.644;2023-06-01T09:14:22;4.90;;;2.83;;
45007;SDS011;30743;52.008;5.644;2023-06-01T09:16:49;4.57;;;3.20;;
45007;SDS011;30743;52.008;5.644;2023-06-01T09:19:15;7.57;;;3.47;;
45007;SDS011;30743;52.008;5.644;2023-06-01T09:21:59;8.40;;;3.88;;
45007;SDS011;30743;52.008;5.644;2023-06-01T09:24:25;5.97;;;3.40;;
45007;SDS011;30743;52.008;5.644;2023-06-01T09:26:51;5.70;;;3.08;;
45007;SDS011;30743;52.008;5.644;2023-06-01T09:29:24;5.78;;;3.25;;
45007;SDS011;30743;52.008;5.644;2023-06-01T09:31:51;5.97;;;3.15;;
45007;SDS011;30743;52.008;5.644;2023-06-01T09:34:17;7.55;;;3.25;;
45007;SDS011;30743;52.008;5.644;2023-06-01T09:36:47;5.25;;;2.88;;
45007;SDS011;30743;52.008;5.644;2023-06-01T09:39:20;6.55;;;3.20;;
45007;SDS011;30743;52.008;5.644;2023-06-01T09:44:24;6.85;;;3.17;;
45007;SDS011;30743;52.008;5.644;2023-06-01T09:46:52;11.32;;;4.45;;
45007;SDS011;30743;52.008;5.644;2023-06-01T09:49:23;7.95;;;4.10;;
45007;SDS011;30743;52.008;5.644;2023-06-01T09:51:51;10.38;;;4.32;;
45007;SDS011;30743;52.008;5.644;2023-06-01T09:54:21;6.68;;;3.30;;
45007;SDS011;30743;52.008;5.644;2023-06-01T09:56:48;9.90;;;3.67;;
45007;SDS011;30743;52.008;5.644;2023-06-01T09:59:14;5.93;;;3.78;;
45007;SDS011;30743;52.008;5.644;2023-06-01T10:01:40;5.50;;;3.60;;
45007;SDS011;30743;52.008;5.644;2023-06-01T10:04:07;6.57;;;3.67;;
45007;SDS011;30743;52.008;5.644;2023-06-01T10:06:37;9.55;;;3.72;;
45007;SDS011;30743;52.008;5.644;2023-06-01T10:09:06;8.13;;;3.72;;
45007;SDS011;30743;52.008;5.644;2023-06-01T10:11:39;7.25;;;3.55;;
45007;SDS011;30743;52.008;5.644;2023-06-01T10:14:04;7.65;;;3.63;;
45007;SDS011;30743;52.008;5.644;2023-06-01T10:16:30;5.57;;;3.08;;
45007;SDS011;30743;52.008;5.644;2023-06-01T10:18:57;7.20;;;3.20;;
45007;SDS011;30743;52.008;5.644;2023-06-01T10:21:23;6.95;;;3.55;;
45007;SDS011;30743;52.008;5.644;2023-06-01T10:23:49;5.22;;;3.17;;
45007;SDS011;30743;52.008;5.644;2023-06-01T10:26:15;7.47;;;3.60;;
45007;SDS011;30743;52.008;5.644;2023-06-01T10:28:44;8.55;;;3.17;;
45007;SDS011;30743;52.008;5.644;2023-06-01T10:34:01;4.90;;;3.38;;
45007;SDS011;30743;52.008;5.644;2023-06-01T10:37:09;7.82;;;3.28;;
45007;SDS011;30743;52.008;5.644;2023-06-01T10:39:22;7.47;;;3.72;;
45007;SDS011;30743;52.008;5.644;2023-06-01T10:41:51;7.68;;;3.35;;
45007;SDS011;30743;52.008;5.644;2023-06-01T10:47:04;7.25;;;3.33;;
45007;SDS011;30743;52.008;5.644;2023-06-01T10:52:27;7.28;;;3.50;;
45007;SDS011;30743;52.008;5.644;2023-06-01T10:57:35;5.20;;;3.58;;
45007;SDS011;30743;52.008;5.644;2023-06-01T11:00:20;11.68;;;3.58;;
45007;SDS011;30743;52.008;5.644;2023-06-01T11:02:58;7.43;;;4.00;;
45007;SDS011;30743;52.008;5.644;2023-06-01T11:13:24;6.35;;;4.45;;
45007;SDS011;30743;52.008;5.644;2023-06-01T11:18:54;6.82;;;4.00;;
45007;SDS011;30743;52.008;5.644;2023-06-01T11:21:30;6.10;;;3.72;;
45007;SDS011;30743;52.008;5.644;2023-06-01T11:24:12;12.70;;;4.03;;
45007;SDS011;30743;52.008;5.644;2023-06-01T11:26:42;7.53;;;4.55;;
45007;SDS011;30743;52.008;5.644;2023-06-01T11:29:19;8.02;;;4.50;;
45007;SDS011;30743;52.008;5.644;2023-06-01T11:31:53;6.57;;;4.32;;
45007;SDS011;30743;52.008;5.644;2023-06-01T11:34:28;7.45;;;5.15;;
45007;SDS011;30743;52.008;5.644;2023-06-01T11:37:03;7.30;;;4.05;;
45007;SDS011;30743;52.008;5.644;2023-06-01T11:39:30;8.18;;;4.68;;
45007;SDS011;30743;52.008;5.644;2023-06-01T11:42:06;10.13;;;4.60;;
45007;SDS011;30743;52.008;5.644;2023-06-01T11:44:45;5.90;;;4.50;;
45007;SDS011;30743;52.008;5.644;2023-06-01T11:47:21;6.30;;;4.03;;
45007;SDS011;30743;52.008;5.644;2023-06-01T11:49:48;6.97;;;4.75;;
45007;SDS011;30743;52.008;5.644;2023-06-01T11:52:15;7.85;;;4.05;;
45007;SDS011;30743;52.008;5.644;2023-06-01T11:54:42;6.50;;;4.13;;
45007;SDS011;30743;52.008;5.644;2023-06-01T11:57:08;7.10;;;3.53;;
45007;SDS011;30743;52.008;5.644;2023-06-01T11:59:38;7.40;;;3.53;;
45007;SDS011;30743;52.008;5.644;2023-06-01T12:02:04;6.53;;;3.90;;
45007;SDS011;30743;52.008;5.644;2023-06-01T12:05:02;8.02;;;3.85;;
45007;SDS011;30743;52.008;5.644;2023-06-01T12:07:43;5.13;;;3.60;;
45007;SDS011;30743;52.008;5.644;2023-06-01T12:10:12;7.50;;;3.97;;
45007;SDS011;30743;52.008;5.644;2023-06-01T12:12:40;8.80;;;3.80;;
45007;SDS011;30743;52.008;5.644;2023-06-01T12:15:08;7.85;;;4.32;;
45007;SDS011;30743;52.008;5.644;2023-06-01T12:17:54;6.80;;;3.40;;
45007;SDS011;30743;52.008;5.644;2023-06-01T12:20:27;6.60;;;3.88;;
45007;SDS011;30743;52.008;5.644;2023-06-01T12:22:57;6.63;;;3.35;;
45007;SDS011;30743;52.008;5.644;2023-06-01T12:25:24;6.78;;;3.30;;
45007;SDS011;30743;52.008;5.644;2023-06-01T12:28:03;10.35;;;2.95;;
45007;SDS011;30743;52.008;5.644;2023-06-01T12:30:30;4.80;;;2.85;;
45007;SDS011;30743;52.008;5.644;2023-06-01T12:32:56;4.70;;;3.15;;
45007;SDS011;30743;52.008;5.644;2023-06-01T12:35:22;7.00;;;2.85;;
45007;SDS011;30743;52.008;5.644;2023-06-01T12:40:33;7.05;;;3.40;;
45007;SDS011;30743;52.008;5.644;2023-06-01T12:43:00;5.68;;;3.13;;
45007;SDS011;30743;52.008;5.644;2023-06-01T12:45:25;9.48;;;3.10;;
45007;SDS011;30743;52.008;5.644;2023-06-01T12:48:01;5.45;;;2.80;;
45007;SDS011;30743;52.008;5.644;2023-06-01T12:50:26;7.28;;;3.17;;
45007;SDS011;30743;52.008;5.644;2023-06-01T12:52:52;5.40;;;3.30;;
45007;SDS011;30743;52.008;5.644;2023-06-01T12:55:17;5.25;;;2.95;;
45007;SDS011;30743;52.008;5.644;2023-06-01T12:57:44;5.32;;;2.97;;
45007;SDS011;30743;52.008;5.644;2023-06-01T13:00:18;6.72;;;3.60;;
45007;SDS011;30743;52.008;5.644;2023-06-01T13:02:44;3.40;;;2.70;;
45007;SDS011;30743;52.008;5.644;2023-06-01T13:05:13;4.72;;;3.08;;
45007;SDS011;30743;52.008;5.644;2023-06-01T13:07:41;4.82;;;3.42;;
45007;SDS011;30743;52.008;5.644;2023-06-01T13:10:06;4.65;;;3.25;;
45007;SDS011;30743;52.008;5.644;2023-06-01T13:12:34;8.40;;;3.15;;
45007;SDS011;30743;52.008;5.644;2023-06-01T13:14:59;8.02;;;3.60;;
45007;SDS011;30743;52.008;5.644;2023-06-01T13:17:25;6.18;;;3.10;;
45007;SDS011;30743;52.008;5.644;2023-06-01T13:19:51;4.53;;;3.05;;
45007;SDS011;30743;52.008;5.644;2023-06-01T13:22:17;5.05;;;2.88;;
45007;SDS011;30743;52.008;5.644;2023-06-01T13:24:43;5.85;;;2.72;;
45007;SDS011;30743;52.008;5.644;2023-06-01T13:27:09;3.70;;;2.85;;
45007;SDS011;30743;52.008;5.644;2023-06-01T13:29:35;8.02;;;3.70;;
45007;SDS011;30743;52.008;5.644;2023-06-01T13:32:00;4.32;;;3.00;;
45007;SDS011;30743;52.008;5.644;2023-06-01T13:34:26;5.03;;;3.00;;
45007;SDS011;30743;52.008;5.644;2023-06-01T13:36:51;5.07;;;2.70;;
45007;SDS011;30743;52.008;5.644;2023-06-01T13:39:17;4.65;;;3.08;;
45007;SDS011;30743;52.008;5.644;2023-06-01T13:41:42;5.07;;;2.90;;
45007;SDS011;30743;52.008;5.644;2023-06-01T13:44:08;5.30;;;2.85;;
45007;SDS011;30743;52.008;5.644;2023-06-01T13:46:33;4.15;;;3.28;;
45007;SDS011;30743;52.008;5.644;2023-06-01T13:48:59;6.55;;;3.47;;
45007;SDS011;30743;52.008;5.644;2023-06-01T13:51:25;5.88;;;2.80;;
45007;SDS011;30743;52.008;5.644;2023-06-01T13:53:51;4.60;;;2.53;;
45007;SDS011;30743;52.008;5.644;2023-06-01T13:56:16;5.65;;;2.55;;
45007;SDS011;30743;52.008;5.644;2023-06-01T13:58:42;7.55;;;2.70;;
45007;SDS011;30743;52.008;5.644;2023-06-01T14:01:07;5.38;;;2.72;;
45007;SDS011;30743;52.008;5.644;2023-06-01T14:03:33;6.25;;;2.75;;
45007;SDS011;30743;52.008;5.644;2023-06-01T14:05:58;6.18;;;3.05;;
45007;SDS011;30743;52.008;5.644;2023-06-01T14:08:24;4.78;;;2.50;;
45007;SDS011;30743;52.008;5.644;2023-06-01T14:10:49;4.65;;;2.63;;
45007;SDS011;30743;52.008;5.644;2023-06-01T14:13:15;4.43;;;2.20;;
45007;SDS011;30743;52.008;5.644;2023-06-01T14:15:40;5.60;;;2.50;;
45007;SDS011;30743;52.008;5.644;2023-06-01T14:18:06;5.20;;;2.70;;
45007;SDS011;30743;52.008;5.644;2023-06-01T14:20:31;7.82;;;2.88;;
45007;SDS011;30743;52.008;5.644;2023-06-01T14:22:59;5.13;;;2.45;;
45007;SDS011;30743;52.008;5.644;2023-06-01T14:25:25;5.28;;;2.53;;
45007;SDS011;30743;52.008;5.644;2023-06-01T14:27:50;4.90;;;2.33;;
45007;SDS011;30743;52.008;5.644;2023-06-01T14:30:16;4.50;;;2.30;;
45007;SDS011;30743;52.008;5.644;2023-06-01T14:32:42;3.60;;;2.50;;
45007;SDS011;30743;52.008;5.644;2023-06-01T14:35:07;6.45;;;3.08;;
45007;SDS011;30743;52.008;5.644;2023-06-01T14:37:33;6.55;;;2.50;;
45007;SDS011;30743;52.008;5.644;2023-06-01T14:39:58;4.72;;;2.45;;
45007;SDS011;30743;52.008;5.644;2023-06-01T14:42:24;6.82;;;2.35;;
45007;SDS011;30743;52.008;5.644;2023-06-01T14:44:50;6.45;;;2.25;;
45007;SDS011;30743;52.008;5.644;2023-06-01T14:47:15;4.57;;;2.17;;
45007;SDS011;30743;52.008;5.644;2023-06-01T14:49:41;5.13;;;2.08;;
45007;SDS011;30743;52.008;5.644;2023-06-01T14:52:06;4.00;;;2.03;;
45007;SDS011;30743;52.008;5.644;2023-06-01T14:54:32;5.07;;;2.22;;
45007;SDS011;30743;52.008;5.644;2023-06-01T14:56:57;3.78;;;2.20;;
45007;SDS011;30743;52.008;5.644;2023-06-01T14:59:24;5.05;;;2.15;;
45007;SDS011;30743;52.008;5.644;2023-06-01T15:01:50;7.60;;;2.60;;
45007;SDS011;30743;52.008;5.644;2023-06-01T15:04:15;5.30;;;2.45;;
45007;SDS011;30743;52.008;5.644;2023-06-01T15:06:41;8.95;;;2.58;;
45007;SDS011;30743;52.008;5.644;2023-06-01T15:09:06;8.25;;;3.45;;
45007;SDS011;30743;52.008;5.644;2023-06-01T15:11:32;4.53;;;2.45;;
45007;SDS011;30743;52.008;5.644;2023-06-01T15:13:57;3.97;;;2.30;;
45007;SDS011;30743;52.008;5.644;2023-06-01T15:16:23;5.03;;;2.10;;
45007;SDS011;30743;52.008;5.644;2023-06-01T15:18:50;6.43;;;2.45;;
45007;SDS011;30743;52.008;5.644;2023-06-01T15:21:15;5.35;;;2.30;;
45007;SDS011;30743;52.008;5.644;2023-06-01T15:23:41;3.70;;;1.80;;
45007;SDS011;30743;52.008;5.644;2023-06-01T15:26:06;3.45;;;1.70;;